Aérodrome :
LOGIN :

S'inscrire | Disclaimer

   EN    FR    IT 

 










Légende :    VFR   VFR Marginal   IFR   IFR Intensif   IFR Très Intensif
Visi : 
Plafond : 
>= 8 km
>= 3000ft
5 à 8 km
1000 à 3000 ft
1500m à 5 km
500 à 1000 ft
800 à 1500m
200 à 500 ft
< 800m
< 200 ft
Symboles :   Orages  Brouillard  Fortes neiges  Fortes précipitations  Vent > 20 kt
SIGMETs :   Divers  Orages  Givrage  Turbulence  Onde Orograph.  Cendres Volcan.






- Altitude de l'aérodrome : 239 ft
- Code IATA : VRN


LIPX - Villafranca Int. Verona

DERNIER METAR :
  • 200850Z 33005KT CAVOK 05/M05 Q1041

METARs EXPIRÉS :
  • 200820Z 33005KT CAVOK 04/M06 Q1041
  • 200750Z 33004KT 310V010 CAVOK 02/M06 Q1040
  • 200720Z 32005KT CAVOK 01/M06 Q1040
  • 200650Z 33005KT CAVOK 01/M07 Q1039
  • 200620Z 32005KT 300V360 CAVOK 02/M07 Q1039

TAF TAF LIPX
Valide du 20 à 09h jusqu'au 20 à 18h UTC


200800Z 2009/2018 VRB05KT 9999 SCT080



MET'MAP, la Météo Aéronautique d'un coup d'oeil ! - Copyright ORBIFLY Décembre 2007 - Disclaimer

ORBIFLY MET'MAP TEAM :

Programmation & Développement : Alexandra Zaïnal
Sur une idée originale de : Baudouin d'Aumeries
Assistance à la programmation : Marc-Olivier Méhu
Soutien technique & logistique : Manuel Goepfert

Contact : metmap@orbifly.com




SOURCES & CREDITS :

   NOAA